Sachse's Hourly Summary for Sunday, May 13, 2018
Hour Temp
(f)
RH
(%)
Solar Rad.
(MJ/m2)
Rainfall
(in)
Wind
(mph)
5/13/2018 12:00 AM 77 64 0 0 3.8
5/13/2018 1:00 AM 75 69 0 0 5.26
5/13/2018 2:00 AM 74 74 0 0 5.55
5/13/2018 3:00 AM 74 77 0 0 6.7
5/13/2018 4:00 AM 73 81 0 0 5.05
5/13/2018 5:00 AM 72 84 0 0 5.74
5/13/2018 6:00 AM 72 86 0 0 5.62
5/13/2018 7:00 AM 71 88 0.02 0 4.2
5/13/2018 8:00 AM 71 85 0.26 0 4.98
5/13/2018 9:00 AM 72 78 0.65 0 5.92
5/13/2018 10:00 AM 75 70 0.96 0 7.36
5/13/2018 11:00 AM 78 62 1.9 0 8.86
5/13/2018 12:00 PM 80 59 1.93 0 7.82
5/13/2018 1:00 PM 81 53 2.26 0 8.97
5/13/2018 2:00 PM 83 51 2.43 0 8.55
5/13/2018 3:00 PM 84 47 2.31 0 8.84
5/13/2018 4:00 PM 85 47 2.26 0 8.61
5/13/2018 5:00 PM 86 46 1.76 0 8.68
5/13/2018 6:00 PM 86 47 0.63 0 8.47
5/13/2018 7:00 PM 86 47 0.76 0 7.63
5/13/2018 8:00 PM 84 50 0.25 0 5.49
5/13/2018 9:00 PM 82 56 0.01 0 3.62
5/13/2018 10:00 PM 80 60 0 0 3.51
5/13/2018 11:00 PM 79 63 0 0 2.93
Data Summary 78 64 18.39 0.00 6.34